Marshall Municipal-Ryan, MN

11:11 AM CDT am 22. September 2014 (GMT -0500)
Tracy | Change Station
CLOSE
Current Station
Flughafen
Location: Tracy,
Höhe: 1339 ft
Wetterstationen in der Umgebung

Höhe 1339 ft 44.25 °N, 95.61 °W | Updated 19 minutes ago

Heiter
Heiter
66 °F
gefühlte 66 °F
N
7
Wind Wechselnd Wind aus Südwest
Gusts 16 mph

Heute
Max. -- | schwach -- °F
--% Regenrisiko
Gestern
Max. -- | schwach -- °F
Precip. -- inch
7:10 AM 7:20 PM
Letztes Viertel, 2% visible
Druck 30.27 inch
Sichtweite 10.0 Meilen
Wolken Heiter
Taupunkt 50 °F
Feuchtigkeit 57%
Regen 0.00 inch
Schneehöhe Nicht verfügbar..
UV 4 von 12
Pollen 4.60 von 12
Luftqualität Nicht verfügbar..
Flu Activity Nicht verfügbar..
METAR KTKC 221552Z AUTO 23006G14KT 10SM CLR 19/10 A3027 RMK AO2 T01870101

More Conditions Fewer Conditions

Druck 30.27 inch
Sichtweite 10.0 Meilen
Wolken Heiter
Taupunkt 50 °F
Feuchtigkeit 57%
Regen 0.00 inch
Schneehöhe Nicht verfügbar..
UV 4 von 12
Pollen 4.60 von 12
Luftqualität Nicht verfügbar..
Flu Activity Nicht verfügbar..
METAR KTKC 221552Z AUTO 23006G14KT 10SM CLR 19/10 A3027 RMK AO2 T01870101

More Conditions Fewer Conditions

10-Day Weather Forecast

Almanac

Astronomie

Sep. 22, 2014 Aufgang Untergang
Genaue Zeit 07:10 CDT 19:20 CDT
Bürgerliche Dämmerung 06:41 CDT 19:49 CDT
Nautische Dämmerung 06:07 CDT 20:23 CDT
Astronomische Dämmerung 05:32 CDT 20:58 CDT
Mond 05:37 CDT 18:30 CDT
Länge des sichtbaren Lichts 13h 08m
Tageslänge
12h 10m
Tomorrow will be 3m 2s shorter.
Letztes Viertel, 2% of the Moon is Illuminated
Heute
Letztes Viertel
Sept 24
Neu
Okt 1
Erstes Viertel
Okt 8
Vollmond
Okt 15
Letztes Viertel

Heutige Rekorde

State Highs State Lows

Community

WunderPhotos

Upload Photos

1,755,477 Fotos hochgeladen!

WunderBlogs® & News

Nearby

Schneehöhe

Station Depth Höhe
Kein Neuschnee gemeldet.

Erdbebenaktivität

Stadt Distance Mag. Time & Date
No recent earthquake activity has been reported nearby.
Minimum magnitude displayed is 2.5.

küstennahe Wassertemperaturen

Ort Temperatur
Kein Stationsbericht

Wetterstationen in der Umgebung